Time;durP1;ratioP1;P1;durP2;ratioP2;P2;SDS_P1;SDS_P2;PMS_P1;PMS_P2;Temp;Humidity;BMP_temperature;BMP_pressure;BME280_temperature;BME280_humidity;BME280_pressure;Samples;Min_cycle;Max_cycle;Signal;HPM_P1;HPM_P2
2023/10/18 00:00:32;;;;;;;30.10;18.80;;;256.90;2252.80;;;;;;5094892;28;20067;-75
2023/10/18 00:03:01;;;;;;;31.83;18.15;;;256.90;2252.80;;;;;;5094895;28;20020;-75
2023/10/18 00:05:28;;;;;;;34.22;18.25;;;256.90;2252.80;;;;;;5095074;28;20119;-75
2023/10/18 00:07:57;;;;;;;27.48;18.40;;;256.70;2252.80;;;;;;5094841;28;20096;-75
2023/10/18 00:10:27;;;;;;;32.90;17.95;;;256.60;2252.80;;;;;;5094947;28;20020;-71
2023/10/18 00:12:53;;;;;;;31.00;17.33;;;256.20;2252.80;;;;;;5093613;28;20077;-71
2023/10/18 00:15:20;;;;;;;31.52;16.88;;;256.20;2252.80;;;;;;5094690;28;20024;-72
2023/10/18 00:17:46;;;;;;;28.00;17.27;;;256.10;2252.80;;;;;;5094237;28;20020;-72
2023/10/18 00:20:15;;;;;;;29.20;17.33;;;231.30;2252.80;;;;;;5094784;28;20469;-72
2023/10/18 00:22:43;;;;;;;33.25;17.25;;;231.30;2252.80;;;;;;5094709;28;20016;-71
2023/10/18 00:25:10;;;;;;;25.75;16.10;;;231.30;2252.80;;;;;;5082233;28;20047;-72
2023/10/18 00:27:41;;;;;;;25.08;16.00;;;231.10;2252.80;;;;;;5094696;28;20020;-73
2023/10/18 00:30:08;;;;;;;30.20;16.48;;;231.10;2252.80;;;;;;5092727;28;20032;-74
2023/10/18 00:32:36;;;;;;;27.92;16.20;;;231.20;2252.80;;;;;;5087570;28;20386;-72
2023/10/18 00:35:12;;;;;;;28.52;15.85;;;231.20;2252.80;;;;;;5094514;28;20095;-72
2023/10/18 00:37:41;;;;;;;28.85;15.45;;;231.10;2252.80;;;;;;5093229;28;20032;-72
2023/10/18 00:40:17;;;;;;;25.42;16.02;;;231.10;2252.80;;;;;;5094151;28;20068;-72
2023/10/18 00:42:46;;;;;;;30.40;15.98;;;231.10;2252.80;;;;;;5086167;28;20027;-71
2023/10/18 00:45:12;;;;;;;24.25;15.25;;;230.80;2252.80;;;;;;5093790;28;20039;-72
2023/10/18 00:47:38;;;;;;;23.45;14.32;;;231.20;2252.80;;;;;;5094135;28;20024;-71
2023/10/18 00:50:04;;;;;;;;;;;231.10;2252.80;;;;;;5093888;28;20024;-71
2023/10/18 00:52:31;;;;;;;28.70;15.45;;;231.10;2252.80;;;;;;5075631;28;19961;-72
2023/10/18 00:54:57;;;;;;;28.30;15.93;;;231.00;2252.80;;;;;;5093675;28;20024;-73
2023/10/18 00:57:28;;;;;;;27.85;15.73;;;230.90;2252.80;;;;;;5093921;28;20023;-72
2023/10/18 00:59:56;;;;;;;28.52;16.20;;;230.90;2252.80;;;;;;5079059;28;20398;-71
2023/10/18 01:02:28;;;;;;;28.45;14.70;;;230.90;2252.80;;;;;;5093882;28;20020;-73
2023/10/18 01:04:55;;;;;;;23.92;15.43;;;231.00;2252.80;;;;;;5094085;28;20042;-72
2023/10/18 01:07:20;;;;;;;30.08;16.13;;;231.10;2252.80;;;;;;5093849;28;20016;-72
2023/10/18 01:09:50;;;;;;;32.55;16.95;;;231.00;2252.80;;;;;;5093809;28;20095;-72
2023/10/18 01:12:17;;;;;;;41.60;17.55;;;231.00;2252.80;;;;;;5093599;28;20016;-73
2023/10/18 01:14:46;;;;;;;34.72;17.55;;;230.90;2252.80;;;;;;5093759;28;20020;-71
2023/10/18 01:17:12;;;;;;;27.00;16.23;;;230.90;2252.80;;;;;;5093452;28;20090;-71
2023/10/18 01:19:41;;;;;;;27.52;16.00;;;230.90;2252.80;;;;;;5087388;28;20477;-72
2023/10/18 01:22:07;;;;;;;33.50;16.65;;;230.90;2252.80;;;;;;5087268;28;20032;-72
2023/10/18 01:24:36;;;;;;;28.13;16.60;;;230.90;2252.80;;;;;;5093604;28;20099;-72
2023/10/18 01:27:06;;;;;;;26.70;16.02;;;230.80;2252.80;;;;;;5087659;28;20032;-72
2023/10/18 01:29:33;;;;;;;32.20;16.63;;;230.80;2252.80;;;;;;5093518;28;20028;-72
2023/10/18 01:31:59;;;;;;;31.77;15.27;;;230.70;2252.80;;;;;;5093454;28;20486;-72
2023/10/18 01:34:26;;;;;;;32.35;15.38;;;230.70;2252.80;;;;;;5093607;28;20032;-72
2023/10/18 01:36:56;;;;;;;28.58;15.90;;;230.70;2252.80;;;;;;5093317;28;20020;-72
2023/10/18 01:39:22;;;;;;;30.45;15.82;;;230.80;2252.80;;;;;;5092149;28;20099;-72
2023/10/18 01:41:49;;;;;;;25.98;14.43;;;230.80;2252.80;;;;;;5091764;28;20027;-72
2023/10/18 01:44:30;;;;;;;29.10;16.40;;;230.80;2252.80;;;;;;5093470;28;20027;-72
2023/10/18 01:49:31;;;;;;;28.50;15.85;;;230.80;2252.80;;;;;;5093274;28;20477;-72
2023/10/18 01:52:04;;;;;;;29.85;16.75;;;230.80;2252.80;;;;;;5093076;28;20028;-72
2023/10/18 01:54:29;;;;;;;31.55;17.27;;;230.70;2252.80;;;;;;5092909;28;20024;-73
2023/10/18 01:56:57;;;;;;;27.83;15.80;;;230.80;2252.80;;;;;;5093280;28;20481;-73
2023/10/18 01:59:27;;;;;;;32.85;16.63;;;230.90;2252.80;;;;;;5086876;28;20581;-73
2023/10/18 02:01:56;;;;;;;31.92;17.30;;;230.80;2252.80;;;;;;5086282;28;20016;-73
2023/10/18 02:04:26;;;;;;;32.80;17.20;;;230.80;2252.80;;;;;;5092923;28;20020;-72
2023/10/18 02:06:59;;;;;;;28.00;16.50;;;230.90;2252.80;;;;;;5075078;28;20020;-73
2023/10/18 02:09:49;;;;;;;33.28;17.38;;;230.80;2252.80;;;;;;5075384;28;20378;-73
2023/10/18 02:12:21;;;;;;;35.63;17.77;;;230.90;2252.80;;;;;;5092924;28;20530;-72
2023/10/18 02:14:50;;;;;;;37.42;18.65;;;230.70;2252.80;;;;;;5092949;28;20056;-73
2023/10/18 02:17:18;;;;;;;39.00;17.10;;;230.80;2252.80;;;;;;5091607;28;20024;-72
2023/10/18 02:19:44;;;;;;;36.70;16.90;;;230.60;2252.80;;;;;;5092819;28;20028;-73
2023/10/18 02:22:13;;;;;;;33.72;17.02;;;230.40;2252.80;;;;;;5086807;28;20173;-73
2023/10/18 02:24:42;;;;;;;35.75;17.60;;;205.60;2252.80;;;;;;5091709;28;20367;-73
2023/10/18 02:27:09;;;;;;;34.78;16.48;;;205.40;2252.80;;;;;;5092751;28;20020;-72
2023/10/18 02:29:35;;;;;;;38.42;17.63;;;205.50;2252.80;;;;;;5074728;28;20027;-73
2023/10/18 02:34:57;;;;;;;33.65;16.98;;;205.40;2252.80;;;;;;5030576;28;20084;-73
2023/10/18 02:37:24;;;;;;;36.38;16.13;;;205.40;2252.80;;;;;;5030796;28;20060;-73
2023/10/18 02:39:51;;;;;;;30.48;14.57;;;205.40;2252.80;;;;;;5031953;28;20037;-73
2023/10/18 02:42:18;;;;;;;24.88;14.93;;;205.40;2252.80;;;;;;5034299;28;20387;-73
2023/10/18 02:44:44;;;;;;;33.60;16.17;;;205.30;2252.80;;;;;;5034279;28;20164;-73
2023/10/18 02:47:22;;;;;;;32.85;16.33;;;205.30;2252.80;;;;;;5033755;28;20483;-73
2023/10/18 02:49:52;;;;;;;31.30;15.00;;;205.30;2252.80;;;;;;5033938;28;20029;-73
2023/10/18 02:52:20;;;;;;;29.17;16.20;;;205.20;2252.80;;;;;;5024573;28;20527;-73
2023/10/18 02:54:48;;;;;;;35.85;16.05;;;205.10;2252.80;;;;;;5014034;28;20491;-73
2023/10/18 02:57:14;;;;;;;27.23;15.55;;;205.00;2252.80;;;;;;5014156;28;20033;-75
2023/10/18 02:59:41;;;;;;;30.35;16.35;;;205.00;2252.80;;;;;;5013569;28;20112;-75
2023/10/18 03:02:17;;;;;;;28.65;14.85;;;205.10;2252.80;;;;;;5013741;28;20501;-73
2023/10/18 03:04:43;;;;;;;21.90;12.82;;;205.00;2252.80;;;;;;4997698;28;20539;-73
2023/10/18 03:07:13;;;;;;;26.30;14.88;;;205.00;2252.80;;;;;;4997549;28;20516;-74
2023/10/18 03:09:39;;;;;;;37.63;16.45;;;205.00;2252.80;;;;;;4997159;28;20045;-73
2023/10/18 03:12:15;;;;;;;39.03;18.85;;;205.10;2252.80;;;;;;5050914;28;20090;-73
2023/10/18 03:14:54;;;;;;;32.80;16.63;;;205.20;2252.80;;;;;;5065169;28;20055;-73
2023/10/18 03:19:50;;;;;;;32.85;16.80;;;205.20;2252.80;;;;;;5075785;28;20504;-71
2023/10/18 03:22:22;;;;;;;32.70;16.75;;;205.10;2252.80;;;;;;5060310;28;20035;-73
2023/10/18 03:24:53;;;;;;;29.40;16.60;;;205.20;2252.80;;;;;;5066814;28;20092;-74
2023/10/18 03:27:20;;;;;;;32.58;16.73;;;205.20;2252.80;;;;;;5070283;28;20024;-73
2023/10/18 03:29:46;;;;;;;34.60;17.17;;;205.60;2252.80;;;;;;5069024;28;20020;-73
2023/10/18 03:32:19;;;;;;;36.95;17.10;;;205.30;2252.80;;;;;;5076874;28;20086;-74
2023/10/18 03:34:48;;;;;;;32.60;17.48;;;205.30;2252.80;;;;;;5057608;28;20027;-74
2023/10/18 03:37:24;;;;;;;30.80;17.60;;;205.30;2252.80;;;;;;5070756;28;20025;-73
2023/10/18 03:39:53;;;;;;;33.80;17.33;;;205.30;2252.80;;;;;;5057818;28;20493;-73
2023/10/18 03:42:31;;;;;;;30.35;16.13;;;205.40;2252.80;;;;;;5077424;28;20077;-73
2023/10/18 03:45:01;;;;;;;33.88;16.63;;;205.40;2252.80;;;;;;5081727;28;20022;-72
2023/10/18 03:47:36;;;;;;;34.20;17.75;;;205.30;2252.80;;;;;;5077317;28;20473;-73
2023/10/18 03:50:02;;;;;;;32.97;17.58;;;205.40;2252.80;;;;;;5081584;28;20020;-75
2023/10/18 03:52:29;;;;;;;40.97;18.92;;;205.40;2252.80;;;;;;5105716;28;20044;-74
2023/10/18 03:57:37;;;;;;;41.65;20.45;;;205.30;2252.80;;;;;;5115616;28;20020;-74
2023/10/18 04:00:54;;;;;;;40.03;18.58;;;205.20;2252.80;;;;;;5114796;28;20035;-74
2023/10/18 04:02:56;;;;;;;33.40;16.73;;;205.20;2252.80;;;;;;5103697;28;20377;-74
2023/10/18 04:05:42;;;;;;;36.10;17.58;;;205.00;2252.80;;;;;;5114782;28;20024;-73
2023/10/18 04:08:13;;;;;;;38.13;18.38;;;205.00;2252.80;;;;;;5108614;28;20072;-74
2023/10/18 04:10:40;;;;;;;39.15;18.23;;;205.00;2252.80;;;;;;5095091;28;20028;-72
2023/10/18 04:13:13;;;;;;;34.70;16.58;;;204.90;2252.80;;;;;;5089281;28;20021;-74
2023/10/18 04:15:46;;;;;;;31.58;17.35;;;204.80;2252.80;;;;;;5094700;28;20022;-73
2023/10/18 04:18:13;;;;;;;41.05;19.67;;;204.80;2252.80;;;;;;5104190;28;20019;-73
2023/10/18 04:20:44;;;;;;;40.08;17.92;;;204.80;2252.80;;;;;;5098522;28;20081;-73
2023/10/18 04:23:19;;;;;;;43.03;19.83;;;204.80;2252.80;;;;;;5076802;28;20031;-73
2023/10/18 04:26:01;;;;;;;39.50;20.52;;;204.80;2252.80;;;;;;5107851;28;20070;-73
2023/10/18 04:28:37;;;;;;;37.80;19.08;;;180.10;2252.80;;;;;;5108602;28;20028;-73
2023/10/18 04:31:04;;;;;;;46.40;20.45;;;180.10;2252.80;;;;;;5096766;28;20027;-73
2023/10/18 04:33:49;;;;;;;46.78;22.05;;;180.00;2252.80;;;;;;5113911;28;20380;-74
2023/10/18 04:36:16;;;;;;;42.72;20.45;;;180.00;2252.80;;;;;;5096694;28;20111;-73
2023/10/18 04:38:45;;;;;;;38.85;19.92;;;179.80;2252.80;;;;;;5090876;28;20158;-74
2023/10/18 04:41:31;;;;;;;44.72;20.35;;;179.80;2252.80;;;;;;5075899;28;20059;-73
2023/10/18 04:44:05;;;;;;;36.58;17.10;;;179.80;2252.80;;;;;;5075985;28;20101;-74
2023/10/18 04:46:32;;;;;;;49.15;22.67;;;179.80;2252.80;;;;;;5092039;28;20515;-75
2023/10/18 04:54:14;;;;;;;45.17;20.50;;;179.60;2252.80;;;;;;5087570;28;20051;-75
2023/10/18 04:56:44;;;;;;;43.95;21.15;;;179.50;2252.80;;;;;;5091113;28;20147;-75
2023/10/18 04:59:11;;;;;;;46.83;22.38;;;179.50;2252.80;;;;;;5057530;28;20993;-74
2023/10/18 05:02:16;;;;;;;45.70;22.55;;;179.60;2252.80;;;;;;5081284;28;20486;-74
2023/10/18 05:04:32;;;;;;;44.05;21.33;;;179.40;2252.80;;;;;;5082971;28;20039;-73
2023/10/18 05:07:21;;;;;;;44.33;20.85;;;179.20;2252.80;;;;;;5087562;28;20024;-74
2023/10/18 05:09:46;;;;;;;43.35;20.38;;;179.20;2252.80;;;;;;5090248;28;20493;-74
2023/10/18 05:14:50;;;;;;;42.78;17.80;;;154.40;2252.80;;;;;;5085606;28;19910;-75
2023/10/18 05:17:22;;;;;;;33.97;18.58;;;153.80;2252.80;;;;;;5064074;28;20421;-74
2023/10/18 05:19:49;;;;;;;40.90;18.92;;;154.00;2252.80;;;;;;5089898;28;20398;-75
2023/10/18 05:22:25;;;;;;;44.53;19.38;;;154.00;2252.80;;;;;;5089102;28;20111;-74
2023/10/18 05:24:55;;;;;;;40.87;18.23;;;154.00;2252.80;;;;;;5066410;28;20040;-75
2023/10/18 05:27:28;;;;;;;43.08;20.48;;;154.20;2252.80;;;;;;5085957;28;20062;-75
2023/10/18 05:29:57;;;;;;;40.35;20.73;;;154.40;2252.80;;;;;;5079120;28;20024;-77
2023/10/18 05:32:37;;;;;;;44.28;20.67;;;154.40;2252.80;;;;;;5100312;28;20077;-77
2023/10/18 05:35:24;;;;;;;47.30;20.67;;;154.50;2252.80;;;;;;5074169;28;20127;-76
2023/10/18 05:37:59;;;;;;;47.42;21.67;;;154.40;2252.80;;;;;;5069227;28;20482;-77
2023/10/18 05:43:12;;;;;;;47.35;20.80;;;154.50;2252.80;;;;;;5089359;28;20406;-77
2023/10/18 05:45:42;;;;;;;40.42;20.17;;;154.50;2252.80;;;;;;5086308;28;20363;-78
2023/10/18 05:48:17;;;;;;;51.28;22.98;;;154.50;2252.80;;;;;;5075157;28;20615;-75
2023/10/18 05:50:49;;;;;;;44.97;20.38;;;179.20;2252.80;;;;;;5070570;28;20433;-74
2023/10/18 05:53:18;;;;;;;44.92;21.23;;;179.40;2252.80;;;;;;5091397;28;20140;-75
2023/10/18 05:55:53;;;;;;;40.95;21.33;;;179.30;2252.80;;;;;;5083624;28;20032;-74
2023/10/18 05:58:27;;;;;;;42.67;19.77;;;179.50;2252.80;;;;;;5094636;28;20032;-76
2023/10/18 06:00:56;;;;;;;35.65;20.30;;;179.70;2252.80;;;;;;5105141;28;20032;-81
2023/10/18 06:03:25;;;;;;;36.63;19.73;;;179.80;2252.80;;;;;;5089369;28;20054;-74
2023/10/18 06:05:51;;;;;;;44.22;22.80;;;179.90;2252.80;;;;;;5092188;28;20024;-74
2023/10/18 06:08:22;;;;;;;40.83;22.90;;;180.10;2252.80;;;;;;5086747;28;20019;-75
2023/10/18 06:11:01;;;;;;;39.17;21.58;;;204.90;2252.80;;;;;;5096256;28;20027;-76
2023/10/18 06:13:29;;;;;;;37.70;22.38;;;205.10;2252.80;;;;;;5070071;28;20420;-76
2023/10/18 06:16:02;;;;;;;37.67;21.38;;;205.20;2252.80;;;;;;5067170;28;20021;-76
2023/10/18 06:18:37;;;;;;;39.08;20.90;;;205.20;2252.80;;;;;;5094624;28;20137;-74
2023/10/18 06:21:12;;;;;;;42.35;23.45;;;205.30;2252.80;;;;;;5089391;28;20032;-75
2023/10/18 06:23:38;;;;;;;39.95;21.65;;;205.50;2252.80;;;;;;5086689;28;20466;-76
2023/10/18 06:26:27;;;;;;;51.00;23.40;;;205.60;2252.80;;;;;;5077173;28;20025;-75
2023/10/18 06:28:56;;;;;;;51.40;25.27;;;230.40;2252.80;;;;;;5098471;28;20350;-77
2023/10/18 06:31:24;;;;;;;48.55;25.63;;;230.40;2252.80;;;;;;5096592;28;20022;-75
2023/10/18 06:33:54;;;;;;;51.28;28.85;;;230.60;2252.80;;;;;;5102405;28;20016;-76
2023/10/18 06:36:21;;;;;;;63.65;32.83;;;230.70;2252.80;;;;;;5092453;28;20017;-72
2023/10/18 06:38:48;;;;;;;56.17;32.45;;;230.90;2252.80;;;;;;5072369;28;20024;-73
2023/10/18 06:41:18;;;;;;;48.97;31.20;;;231.20;2252.80;;;;;;5096140;28;20115;-75
2023/10/18 06:43:45;;;;;;;54.15;31.98;;;256.30;2252.80;;;;;;5096675;28;20129;-73
2023/10/18 06:46:38;;;;;;;53.22;33.55;;;256.40;2252.80;;;;;;5090579;28;20027;-72
2023/10/18 06:49:10;;;;;;;61.63;33.15;;;256.40;2252.80;;;;;;5094079;28;20032;-73
2023/10/18 06:51:40;;;;;;;61.42;35.05;;;256.50;2252.80;;;;;;5097719;28;20037;-74
2023/10/18 06:54:13;;;;;;;58.13;33.13;;;281.60;2278.40;;;;;;5064854;28;20516;-73
2023/10/18 06:56:39;;;;;;;63.80;35.40;;;281.80;2278.40;;;;;;5076110;28;20057;-74
2023/10/18 06:59:09;;;;;;;65.20;36.55;;;281.70;2278.40;;;;;;5103321;28;20085;-74
2023/10/18 07:01:54;;;;;;;64.32;36.70;;;281.80;2278.40;;;;;;5080927;28;20074;-73
2023/10/18 07:04:27;;;;;;;65.03;37.58;;;281.80;2278.40;;;;;;5096399;28;20064;-75
2023/10/18 07:06:53;;;;;;;69.45;37.45;;;281.90;2278.40;;;;;;5061897;28;20024;-74
2023/10/18 07:09:25;;;;;;;70.20;39.03;;;281.90;2278.40;;;;;;5094628;28;20408;-72
2023/10/18 07:11:57;;;;;;;67.63;40.13;;;282.10;2278.40;;;;;;5061577;28;20020;-73
2023/10/18 07:14:26;;;;;;;64.72;37.22;;;282.10;2278.40;;;;;;5090724;28;20020;-74
2023/10/18 07:16:56;;;;;;;69.80;41.17;;;282.30;2278.40;;;;;;5095701;28;20024;-74
2023/10/18 07:21:51;;;;;;;71.72;40.38;;;282.50;2278.40;;;;;;5089451;28;20032;-73
2023/10/18 07:24:20;;;;;;;65.57;38.40;;;307.50;2304.00;;;;;;5076023;28;20028;-74
2023/10/18 07:26:47;;;;;;;63.88;39.47;;;307.80;2304.00;;;;;;5080050;28;20028;-73
2023/10/18 07:29:16;;;;;;;66.15;39.45;;;308.00;2304.00;;;;;;5071837;28;20032;-74
2023/10/18 07:31:45;;;;;;;65.63;41.42;;;332.80;2329.60;;;;;;5069582;28;20016;-74
2023/10/18 07:34:17;;;;;;;61.05;36.92;;;332.90;2329.60;;;;;;5076608;28;20058;-77
2023/10/18 07:36:44;;;;;;;69.00;40.67;;;333.10;2329.60;;;;;;5098262;28;20016;-74
2023/10/18 07:39:16;;;;;;;64.45;37.92;;;333.20;2329.60;;;;;;5085835;28;20047;-75
2023/10/18 07:41:43;;;;;;;64.75;39.05;;;333.40;2329.60;;;;;;5080988;28;20040;-76
2023/10/18 07:44:08;;;;;;;60.53;35.42;;;333.50;2329.60;;;;;;5094409;28;20020;-76
2023/10/18 07:46:39;;;;;;;65.88;36.58;;;333.50;2329.60;;;;;;5088573;28;20465;-76
2023/10/18 07:49:16;;;;;;;63.05;35.72;;;333.60;2329.60;;;;;;5059841;28;20469;-76
2023/10/18 07:51:48;;;;;;;60.03;36.03;;;358.40;2329.60;;;;;;5078067;28;20036;-76
2023/10/18 07:54:16;;;;;;;51.92;34.25;;;358.40;2329.60;;;;;;5065643;28;20028;-75
2023/10/18 07:56:49;;;;;;;53.70;35.05;;;358.50;2329.60;;;;;;5096955;28;20031;-76
2023/10/18 07:59:28;;;;;;;50.60;33.72;;;358.50;2329.60;;;;;;5084949;28;20027;-77
2023/10/18 08:02:09;;;;;;;58.58;32.78;;;358.60;2329.60;;;;;;5106200;28;20110;-76
2023/10/18 08:04:36;;;;;;;56.50;33.47;;;358.50;2329.60;;;;;;5079882;28;20040;-76
2023/10/18 08:07:03;;;;;;;57.60;32.33;;;358.60;2329.60;;;;;;5070300;28;20055;-72
2023/10/18 08:09:29;;;;;;;46.55;30.45;;;358.50;2329.60;;;;;;5090661;28;20027;-75
2023/10/18 08:11:56;;;;;;;46.72;28.77;;;358.40;2329.60;;;;;;5097751;28;20102;-75
2023/10/18 08:14:25;;;;;;;47.42;31.15;;;358.50;2329.60;;;;;;5093542;28;20158;-75
2023/10/18 08:16:57;;;;;;;47.65;28.67;;;358.60;2329.60;;;;;;5066651;28;20074;-73
2023/10/18 08:19:24;;;;;;;46.33;27.27;;;358.80;2329.60;;;;;;5072570;28;20026;-74
2023/10/18 08:24:41;;;;;;;42.47;25.88;;;358.90;2329.60;;;;;;5096734;28;20107;-76
2023/10/18 08:27:10;;;;;;;39.92;24.85;;;359.10;2329.60;;;;;;5082287;28;20078;-74
2023/10/18 08:29:37;;;;;;;39.83;25.05;;;359.30;2329.60;;;;;;5077644;28;20038;-75
2023/10/18 08:32:37;;;;;;;47.15;25.00;;;384.00;2329.60;;;;;;5085870;28;20089;-74
2023/10/18 08:35:05;;;;;;;32.70;21.77;;;384.00;2329.60;;;;;;5095817;28;20050;-76
2023/10/18 08:37:31;;;;;;;38.08;23.98;;;384.00;2329.60;;;;;;5072694;28;20128;-77
2023/10/18 08:39:57;;;;;;;40.92;22.45;;;384.20;2329.60;;;;;;5071271;28;20434;-76
2023/10/18 08:42:39;;;;;;;37.35;20.15;;;384.30;2329.60;;;;;;5086100;28;20028;-80
2023/10/18 08:45:07;;;;;;;34.85;21.42;;;384.30;2329.60;;;;;;5087208;28;20054;-75
2023/10/18 08:47:35;;;;;;;33.53;19.85;;;384.50;2329.60;;;;;;5085454;28;20025;-75
2023/10/18 08:50:01;;;;;;;41.13;21.80;;;384.50;2329.60;;;;;;5075670;28;20019;-75
2023/10/18 08:52:35;;;;;;;35.92;17.48;;;384.40;2329.60;;;;;;5092000;28;20044;-75
2023/10/18 08:55:22;;;;;;;30.80;18.52;;;384.50;2329.60;;;;;;5083763;28;20021;-75
2023/10/18 08:57:57;;;;;;;24.95;15.07;;;384.70;2329.60;;;;;;5085146;28;20044;-75
2023/10/18 09:02:53;;;;;;;26.63;16.20;;;384.90;2329.60;;;;;;5084816;28;20079;-75
2023/10/18 09:05:22;;;;;;;28.02;12.85;;;409.60;2355.20;;;;;;5083615;28;20031;-76
2023/10/18 09:08:19;;;;;;;23.80;13.23;;;409.90;2355.20;;;;;;5086577;28;20099;-76
2023/10/18 09:10:49;;;;;;;22.52;13.43;;;410.20;2355.20;;;;;;5084247;28;20028;-76
2023/10/18 09:15:55;;;;;;;19.70;12.65;;;410.40;2227.20;;;;;;5094833;28;20421;-76
2023/10/18 09:18:22;;;;;;;19.88;12.50;;;435.20;2227.20;;;;;;5087219;28;20101;-75
2023/10/18 09:20:48;;;;;;;17.35;12.55;;;435.50;2252.80;;;;;;5081055;28;20074;-76
2023/10/18 09:23:21;;;;;;;25.55;14.00;;;435.90;2176.00;;;;;;5083430;28;20020;-76
2023/10/18 09:25:48;;;;;;;23.17;13.70;;;460.80;2150.40;;;;;;5084283;28;20470;-76
2023/10/18 09:28:25;;;;;;;26.42;12.85;;;461.10;1996.80;;;;;;5067118;28;20119;-75
2023/10/18 09:31:02;;;;;;;24.80;12.88;;;461.30;1945.60;;;;;;5086005;28;20027;-76
2023/10/18 09:33:36;;;;;;;21.13;12.70;;;461.40;1920.00;;;;;;5096100;28;20488;-75
2023/10/18 09:36:02;;;;;;;25.98;13.63;;;461.50;1920.00;;;;;;5085773;28;20469;-76
2023/10/18 09:38:44;;;;;;;29.77;14.07;;;461.70;1894.40;;;;;;5078323;28;20397;-76
2023/10/18 09:41:11;;;;;;;23.05;12.13;;;486.50;1843.20;;;;;;5089294;28;20066;-76
2023/10/18 09:43:37;;;;;;;22.85;12.52;;;486.60;1792.00;;;;;;5076803;28;20020;-75
2023/10/18 09:46:04;;;;;;;21.52;12.45;;;;;;;;;;5088436;28;20028;-76
2023/10/18 09:48:38;;;;;;;20.85;12.10;;;512.00;1740.80;;;;;;5082778;28;20020;-76
2023/10/18 09:51:08;;;;;;;25.10;14.60;;;512.10;1715.20;;;;;;5080166;28;20043;-76
2023/10/18 09:53:53;;;;;;;24.73;12.75;;;487.20;1740.80;;;;;;5081823;28;20031;-75
2023/10/18 09:56:24;;;;;;;20.88;12.07;;;512.20;1689.60;;;;;;5066429;28;20051;-76
2023/10/18 09:58:51;;;;;;;18.00;8.90;;;512.30;1664.00;;;;;;5087310;28;20012;-75
2023/10/18 10:01:28;;;;;;;17.15;10.00;;;512.50;1664.00;;;;;;5084017;28;20504;-75
2023/10/18 10:04:01;;;;;;;16.92;10.82;;;512.50;1612.80;;;;;;5096349;28;20016;-76
2023/10/18 10:06:28;;;;;;;21.40;11.98;;;512.70;1587.20;;;;;;5075602;28;20029;-75
2023/10/18 10:08:56;;;;;;;16.67;9.95;;;512.50;1587.20;;;;;;5071625;28;20031;-75
2023/10/18 10:11:29;;;;;;;20.90;11.23;;;512.90;1561.60;;;;;;5095592;28;20024;-78
2023/10/18 10:13:58;;;;;;;14.90;10.32;;;512.90;1587.20;;;;;;5069008;28;20051;-74
2023/10/18 10:16:27;;;;;;;23.48;11.27;;;537.60;1587.20;;;;;;5082273;28;20057;-74
2023/10/18 10:18:54;;;;;;;21.92;9.65;;;537.60;1587.20;;;;;;5064485;28;20035;-74
2023/10/18 10:21:21;;;;;;;15.40;8.32;;;537.60;1536.00;;;;;;5090844;28;20029;-74
2023/10/18 10:23:55;;;;;;;18.77;9.85;;;537.90;1484.80;;;;;;5086235;28;20024;-74
2023/10/18 10:26:27;;;;;;;18.25;11.25;;;512.80;1510.40;;;;;;5077083;28;20112;-74
2023/10/18 10:31:57;;;;;;;20.63;12.18;;;537.70;1536.00;;;;;;5092502;28;20028;-74
2023/10/18 10:34:37;;;;;;;23.25;11.85;;;512.90;1510.40;;;;;;5085385;28;20040;-74
2023/10/18 10:37:11;;;;;;;18.70;12.05;;;512.80;1510.40;;;;;;5083705;28;20023;-74
2023/10/18 10:42:43;;;;;;;23.25;12.95;;;512.90;1510.40;;;;;;5022229;28;20107;-74
2023/10/18 10:45:41;;;;;;;20.88;13.88;;;537.70;1536.00;;;;;;5024704;28;20057;-74
2023/10/18 10:48:28;;;;;;;24.42;13.70;;;537.90;1510.40;;;;;;5020938;28;20124;-74
2023/10/18 10:54:01;;;;;;;16.05;9.95;;;538.00;1561.60;;;;;;5030175;28;20111;-75
2023/10/18 10:56:27;;;;;;;23.27;10.05;;;538.30;1459.20;;;;;;5024274;28;20368;-74
2023/10/18 11:01:43;;;;;;;18.63;9.13;;;563.50;1484.80;;;;;;5035003;28;20494;-74
2023/10/18 11:04:24;;;;;;;12.32;7.35;;;563.40;1459.20;;;;;;5034099;28;20025;-74
2023/10/18 11:06:57;;;;;;;12.43;6.85;;;563.50;1382.40;;;;;;5030021;28;20447;-75
2023/10/18 11:09:39;;;;;;;14.00;7.05;;;563.30;1433.60;;;;;;5041266;28;20026;-74
2023/10/18 11:12:08;;;;;;;17.23;6.35;;;563.40;1408.00;;;;;;5036443;28;20036;-75
2023/10/18 11:14:36;;;;;;;11.88;6.13;;;563.50;1408.00;;;;;;5033693;28;20030;-74
2023/10/18 11:19:54;;;;;;;18.08;7.20;;;563.40;1433.60;;;;;;5070488;28;20500;-75
2023/10/18 11:22:22;;;;;;;12.10;6.57;;;563.70;1408.00;;;;;;5099015;28;20039;-75
2023/10/18 11:24:49;;;;;;;9.27;6.03;;;563.60;1408.00;;;;;;5076692;28;20024;-76
2023/10/18 11:27:18;;;;;;;11.52;7.00;;;563.50;1433.60;;;;;;5067629;28;20027;-77
2023/10/18 11:29:46;;;;;;;14.90;7.30;;;563.50;1433.60;;;;;;5079659;28;20020;-76
2023/10/18 11:32:18;;;;;;;16.73;8.75;;;563.50;1433.60;;;;;;5090323;28;20020;-75
2023/10/18 11:34:46;;;;;;;20.35;7.07;;;563.70;1459.20;;;;;;5094630;28;20024;-75
2023/10/18 11:39:57;;;;;;;14.85;7.50;;;563.90;1433.60;;;;;;5096319;28;20513;-76
2023/10/18 11:42:23;;;;;;;17.15;6.93;;;564.10;1433.60;;;;;;5090092;28;20028;-75
2023/10/18 11:44:54;;;;;;;11.63;7.63;;;563.90;1408.00;;;;;;5090568;28;20028;-74
2023/10/18 11:47:20;;;;;;;13.38;7.45;;;564.10;1382.40;;;;;;5077224;28;20027;-75
2023/10/18 11:49:53;;;;;;;18.20;7.45;;;588.80;1382.40;;;;;;5089714;28;20171;-75
2023/10/18 11:52:25;;;;;;;10.20;6.75;;;589.00;1433.60;;;;;;5069950;28;20127;-75
2023/10/18 11:54:52;;;;;;;10.57;6.20;;;564.10;1433.60;;;;;;5086948;28;20390;-76
2023/10/18 11:57:41;;;;;;;10.88;6.70;;;564.10;1408.00;;;;;;5068140;28;20161;-76
2023/10/18 12:03:08;;;;;;;13.57;6.88;;;564.00;1459.20;;;;;;5008516;28;20100;-76
2023/10/18 12:05:36;;;;;;;12.43;6.20;;;563.90;1459.20;;;;;;5009258;28;20041;-75
2023/10/18 12:08:05;;;;;;;14.73;6.13;;;563.60;1459.20;;;;;;5006555;28;20058;-75
2023/10/18 12:10:34;;;;;;;11.63;5.50;;;563.60;1459.20;;;;;;4991040;28;20025;-75
2023/10/18 12:13:06;;;;;;;16.02;5.97;;;563.30;1459.20;;;;;;5002294;28;20551;-75
2023/10/18 12:15:33;;;;;;;12.40;5.72;;;563.50;1433.60;;;;;;5010598;28;20068;-75
2023/10/18 12:18:21;;;;;;;13.70;7.65;;;563.50;1459.20;;;;;;5009873;28;20030;-75
2023/10/18 12:20:45;;;;;;;9.82;5.55;;;563.30;1433.60;;;;;;5004711;28;20164;-75
2023/10/18 12:23:18;;;;;;;8.63;4.82;;;538.50;1433.60;;;;;;5007096;28;20122;-75
2023/10/18 12:25:45;;;;;;;13.10;6.03;;;563.40;1408.00;;;;;;5007428;28;20033;-75
2023/10/18 12:30:56;;;;;;;16.55;7.47;;;563.60;1459.20;;;;;;5009305;28;20123;-75
2023/10/18 12:33:27;;;;;;;11.65;7.28;;;563.30;1459.20;;;;;;5008973;28;20025;-75
2023/10/18 12:35:59;;;;;;;18.63;9.27;;;538.50;1459.20;;;;;;5005893;28;20053;-75
2023/10/18 12:38:32;;;;;;;23.85;9.60;;;538.10;1459.20;;;;;;5038283;28;20036;-75
2023/10/18 12:40:59;;;;;;;14.38;7.93;;;538.00;1484.80;;;;;;5084029;28;20067;-75
2023/10/18 12:43:44;;;;;;;12.20;7.13;;;537.70;1510.40;;;;;;5098436;28;20023;-75
2023/10/18 12:46:15;;;;;;;17.13;7.63;;;538.20;1484.80;;;;;;5090367;28;20024;-75
2023/10/18 12:48:42;;;;;;;13.27;8.23;;;538.00;1484.80;;;;;;5092386;28;20012;-75
2023/10/18 12:51:09;;;;;;;15.18;9.27;;;537.80;1536.00;;;;;;5081730;28;20058;-75
2023/10/18 12:58:55;;;;;;;19.92;11.85;;;537.60;1536.00;;;;;;5086567;28;20074;-75
2023/10/18 13:02:04;;;;;;;17.42;11.38;;;512.80;1510.40;;;;;;5085512;28;20028;-75
2023/10/18 13:04:22;;;;;;;19.52;10.65;;;512.60;1536.00;;;;;;5083975;28;20073;-74
2023/10/18 13:06:48;;;;;;;19.35;12.23;;;512.30;1587.20;;;;;;5073917;28;20020;-74
2023/10/18 13:14:13;;;;;;;17.65;11.18;;;487.30;1638.40;;;;;;5089921;28;20012;-73
2023/10/18 13:16:41;;;;;;;22.42;12.80;;;487.30;1612.80;;;;;;5084637;28;20020;-74
2023/10/18 13:19:07;;;;;;;25.02;16.50;;;487.30;1612.80;;;;;;5099655;28;20087;-74
2023/10/18 13:21:33;;;;;;;23.90;14.43;;;512.00;1587.20;;;;;;5083352;28;20158;-74
2023/10/18 13:23:59;;;;;;;25.00;15.07;;;512.00;1612.80;;;;;;5084458;28;20517;-75